sensor_id;sensor_type;location;lat;lon;timestamp;P1;durP1;ratioP1;P2;durP2;ratioP2
16113;SDS011;8161;-33.910;151.156;2022-11-24T00:01:06;0.28;;;0.28;;
16113;SDS011;8161;-33.910;151.156;2022-11-24T00:03:40;1.42;;;0.40;;
16113;SDS011;8161;-33.910;151.156;2022-11-24T00:06:08;2.38;;;0.20;;
16113;SDS011;8161;-33.910;151.156;2022-11-24T00:08:41;0.43;;;0.20;;
16113;SDS011;8161;-33.910;151.156;2022-11-24T00:11:11;1.58;;;0.43;;
16113;SDS011;8161;-33.910;151.156;2022-11-24T00:13:41;0.30;;;0.20;;
16113;SDS011;8161;-33.910;151.156;2022-11-24T00:18:41;1.20;;;0.30;;
16113;SDS011;8161;-33.910;151.156;2022-11-24T00:21:10;5.28;;;0.40;;
16113;SDS011;8161;-33.910;151.156;2022-11-24T00:23:39;1.40;;;0.35;;
16113;SDS011;8161;-33.910;151.156;2022-11-24T00:26:17;0.75;;;0.40;;
16113;SDS011;8161;-33.910;151.156;2022-11-24T00:28:49;1.55;;;0.20;;
16113;SDS011;8161;-33.910;151.156;2022-11-24T00:33:49;2.20;;;0.30;;
16113;SDS011;8161;-33.910;151.156;2022-11-24T00:36:18;0.82;;;0.30;;
16113;SDS011;8161;-33.910;151.156;2022-11-24T00:38:47;0.38;;;0.30;;
16113;SDS011;8161;-33.910;151.156;2022-11-24T00:41:24;0.68;;;0.40;;
16113;SDS011;8161;-33.910;151.156;2022-11-24T00:43:52;1.00;;;0.38;;
16113;SDS011;8161;-33.910;151.156;2022-11-24T00:46:20;1.33;;;0.38;;
16113;SDS011;8161;-33.910;151.156;2022-11-24T00:48:48;2.38;;;0.38;;
16113;SDS011;8161;-33.910;151.156;2022-11-24T00:51:16;1.25;;;0.40;;
16113;SDS011;8161;-33.910;151.156;2022-11-24T00:53:45;2.92;;;0.30;;
16113;SDS011;8161;-33.910;151.156;2022-11-24T00:56:13;1.13;;;0.50;;
16113;SDS011;8161;-33.910;151.156;2022-11-24T00:58:40;0.95;;;0.50;;
16113;SDS011;8161;-33.910;151.156;2022-11-24T01:01:12;5.10;;;0.75;;
16113;SDS011;8161;-33.910;151.156;2022-11-24T01:03:41;0.73;;;0.47;;
16113;SDS011;8161;-33.910;151.156;2022-11-24T01:06:15;0.40;;;0.30;;
16113;SDS011;8161;-33.910;151.156;2022-11-24T01:08:43;2.65;;;0.60;;
16113;SDS011;8161;-33.910;151.156;2022-11-24T01:11:16;2.72;;;0.80;;
16113;SDS011;8161;-33.910;151.156;2022-11-24T01:13:45;2.78;;;0.52;;
16113;SDS011;8161;-33.910;151.156;2022-11-24T01:16:18;0.90;;;0.70;;
16113;SDS011;8161;-33.910;151.156;2022-11-24T01:18:49;1.80;;;0.50;;
16113;SDS011;8161;-33.910;151.156;2022-11-24T01:21:17;1.08;;;0.50;;
16113;SDS011;8161;-33.910;151.156;2022-11-24T01:23:45;1.25;;;0.52;;
16113;SDS011;8161;-33.910;151.156;2022-11-24T01:26:14;2.95;;;0.85;;
16113;SDS011;8161;-33.910;151.156;2022-11-24T01:28:44;1.90;;;0.57;;
16113;SDS011;8161;-33.910;151.156;2022-11-24T01:31:11;3.78;;;2.47;;
16113;SDS011;8161;-33.910;151.156;2022-11-24T01:33:39;6.68;;;2.25;;
16113;SDS011;8161;-33.910;151.156;2022-11-24T01:36:06;5.20;;;1.83;;
16113;SDS011;8161;-33.910;151.156;2022-11-24T01:38:34;4.63;;;2.40;;
16113;SDS011;8161;-33.910;151.156;2022-11-24T01:43:33;3.00;;;1.67;;
16113;SDS011;8161;-33.910;151.156;2022-11-24T01:46:03;5.03;;;1.52;;
16113;SDS011;8161;-33.910;151.156;2022-11-24T01:48:39;2.95;;;1.35;;
16113;SDS011;8161;-33.910;151.156;2022-11-24T01:51:21;4.63;;;1.40;;
16113;SDS011;8161;-33.910;151.156;2022-11-24T01:53:59;2.53;;;1.38;;
16113;SDS011;8161;-33.910;151.156;2022-11-24T01:56:31;4.40;;;1.27;;
16113;SDS011;8161;-33.910;151.156;2022-11-24T01:59:03;5.72;;;1.65;;
16113;SDS011;8161;-33.910;151.156;2022-11-24T02:01:36;3.38;;;1.00;;
16113;SDS011;8161;-33.910;151.156;2022-11-24T02:04:04;5.55;;;1.23;;
16113;SDS011;8161;-33.910;151.156;2022-11-24T02:06:35;4.03;;;1.20;;
16113;SDS011;8161;-33.910;151.156;2022-11-24T02:11:59;3.83;;;1.00;;
16113;SDS011;8161;-33.910;151.156;2022-11-24T02:14:28;3.33;;;1.02;;
16113;SDS011;8161;-33.910;151.156;2022-11-24T02:16:55;4.95;;;1.02;;
16113;SDS011;8161;-33.910;151.156;2022-11-24T02:19:47;8.20;;;1.27;;
16113;SDS011;8161;-33.910;151.156;2022-11-24T02:22:36;1.63;;;0.95;;
16113;SDS011;8161;-33.910;151.156;2022-11-24T02:28:09;6.22;;;1.02;;
16113;SDS011;8161;-33.910;151.156;2022-11-24T02:30:41;2.60;;;1.00;;
16113;SDS011;8161;-33.910;151.156;2022-11-24T02:33:09;5.50;;;1.40;;
16113;SDS011;8161;-33.910;151.156;2022-11-24T02:35:38;4.40;;;1.00;;
16113;SDS011;8161;-33.910;151.156;2022-11-24T02:38:07;4.15;;;1.00;;
16113;SDS011;8161;-33.910;151.156;2022-11-24T02:40:39;2.72;;;0.88;;
16113;SDS011;8161;-33.910;151.156;2022-11-24T02:43:10;5.05;;;1.45;;
16113;SDS011;8161;-33.910;151.156;2022-11-24T02:45:44;3.85;;;0.70;;
16113;SDS011;8161;-33.910;151.156;2022-11-24T02:48:12;3.22;;;0.88;;
16113;SDS011;8161;-33.910;151.156;2022-11-24T02:50:40;4.75;;;0.95;;
16113;SDS011;8161;-33.910;151.156;2022-11-24T02:53:07;3.95;;;0.80;;
16113;SDS011;8161;-33.910;151.156;2022-11-24T02:55:35;4.85;;;0.93;;
16113;SDS011;8161;-33.910;151.156;2022-11-24T02:58:02;4.13;;;0.80;;
16113;SDS011;8161;-33.910;151.156;2022-11-24T03:00:29;1.77;;;0.60;;
16113;SDS011;8161;-33.910;151.156;2022-11-24T03:02:57;3.22;;;0.80;;
16113;SDS011;8161;-33.910;151.156;2022-11-24T03:05:24;2.28;;;0.88;;
16113;SDS011;8161;-33.910;151.156;2022-11-24T03:07:51;1.65;;;0.90;;
16113;SDS011;8161;-33.910;151.156;2022-11-24T03:10:19;3.30;;;1.00;;
16113;SDS011;8161;-33.910;151.156;2022-11-24T03:12:46;4.75;;;0.80;;
16113;SDS011;8161;-33.910;151.156;2022-11-24T03:15:13;1.83;;;0.60;;
16113;SDS011;8161;-33.910;151.156;2022-11-24T03:17:40;2.97;;;0.70;;
16113;SDS011;8161;-33.910;151.156;2022-11-24T03:20:08;2.60;;;0.70;;
16113;SDS011;8161;-33.910;151.156;2022-11-24T03:22:36;3.72;;;0.73;;
16113;SDS011;8161;-33.910;151.156;2022-11-24T03:25:06;2.28;;;0.55;;
16113;SDS011;8161;-33.910;151.156;2022-11-24T03:27:51;3.65;;;0.80;;
16113;SDS011;8161;-33.910;151.156;2022-11-24T03:30:20;3.55;;;0.88;;
16113;SDS011;8161;-33.910;151.156;2022-11-24T03:32:49;1.98;;;0.75;;
16113;SDS011;8161;-33.910;151.156;2022-11-24T03:35:18;3.95;;;0.80;;
16113;SDS011;8161;-33.910;151.156;2022-11-24T03:37:46;2.38;;;0.75;;
16113;SDS011;8161;-33.910;151.156;2022-11-24T03:40:14;2.28;;;0.70;;
16113;SDS011;8161;-33.910;151.156;2022-11-24T03:42:42;2.97;;;1.10;;
16113;SDS011;8161;-33.910;151.156;2022-11-24T03:45:10;7.60;;;1.00;;
16113;SDS011;8161;-33.910;151.156;2022-11-24T03:47:37;4.05;;;0.80;;
16113;SDS011;8161;-33.910;151.156;2022-11-24T03:50:04;6.25;;;0.80;;
16113;SDS011;8161;-33.910;151.156;2022-11-24T03:52:32;5.05;;;0.80;;
16113;SDS011;8161;-33.910;151.156;2022-11-24T03:54:59;5.05;;;0.80;;
16113;SDS011;8161;-33.910;151.156;2022-11-24T03:57:26;5.25;;;1.27;;
16113;SDS011;8161;-33.910;151.156;2022-11-24T03:59:53;5.40;;;0.90;;
16113;SDS011;8161;-33.910;151.156;2022-11-24T04:02:21;4.97;;;0.98;;
16113;SDS011;8161;-33.910;151.156;2022-11-24T04:04:48;2.55;;;0.80;;
16113;SDS011;8161;-33.910;151.156;2022-11-24T04:07:17;2.35;;;0.60;;
16113;SDS011;8161;-33.910;151.156;2022-11-24T04:09:44;4.03;;;0.98;;
16113;SDS011;8161;-33.910;151.156;2022-11-24T04:12:11;3.60;;;0.90;;
16113;SDS011;8161;-33.910;151.156;2022-11-24T04:14:51;2.80;;;0.77;;
16113;SDS011;8161;-33.910;151.156;2022-11-24T04:17:18;3.05;;;1.33;;
16113;SDS011;8161;-33.910;151.156;2022-11-24T04:19:45;3.85;;;1.60;;
16113;SDS011;8161;-33.910;151.156;2022-11-24T04:22:13;5.57;;;1.10;;
16113;SDS011;8161;-33.910;151.156;2022-11-24T04:24:40;2.75;;;0.90;;
16113;SDS011;8161;-33.910;151.156;2022-11-24T04:27:07;5.18;;;1.02;;
16113;SDS011;8161;-33.910;151.156;2022-11-24T04:29:34;3.95;;;1.30;;
16113;SDS011;8161;-33.910;151.156;2022-11-24T04:32:02;2.40;;;0.68;;
16113;SDS011;8161;-33.910;151.156;2022-11-24T04:34:33;2.70;;;0.82;;
16113;SDS011;8161;-33.910;151.156;2022-11-24T04:37:01;2.28;;;0.57;;
16113;SDS011;8161;-33.910;151.156;2022-11-24T04:39:28;5.75;;;0.70;;
16113;SDS011;8161;-33.910;151.156;2022-11-24T04:41:55;3.65;;;0.60;;
16113;SDS011;8161;-33.910;151.156;2022-11-24T04:44:23;1.60;;;0.60;;
16113;SDS011;8161;-33.910;151.156;2022-11-24T04:46:50;2.58;;;0.82;;
16113;SDS011;8161;-33.910;151.156;2022-11-24T04:49:18;3.10;;;0.60;;
16113;SDS011;8161;-33.910;151.156;2022-11-24T04:51:45;3.70;;;0.90;;
16113;SDS011;8161;-33.910;151.156;2022-11-24T04:54:13;5.28;;;1.15;;
16113;SDS011;8161;-33.910;151.156;2022-11-24T04:56:41;4.45;;;0.77;;
16113;SDS011;8161;-33.910;151.156;2022-11-24T04:59:12;6.03;;;1.00;;
16113;SDS011;8161;-33.910;151.156;2022-11-24T05:01:40;1.23;;;0.73;;
16113;SDS011;8161;-33.910;151.156;2022-11-24T05:04:12;4.13;;;1.00;;
16113;SDS011;8161;-33.910;151.156;2022-11-24T05:06:40;4.22;;;0.85;;
16113;SDS011;8161;-33.910;151.156;2022-11-24T05:09:08;3.47;;;0.98;;
16113;SDS011;8161;-33.910;151.156;2022-11-24T05:11:40;4.30;;;1.00;;
16113;SDS011;8161;-33.910;151.156;2022-11-24T05:14:08;2.80;;;0.90;;
16113;SDS011;8161;-33.910;151.156;2022-11-24T05:16:35;5.60;;;0.88;;
16113;SDS011;8161;-33.910;151.156;2022-11-24T05:19:02;2.72;;;0.80;;
16113;SDS011;8161;-33.910;151.156;2022-11-24T05:21:29;4.68;;;0.93;;
16113;SDS011;8161;-33.910;151.156;2022-11-24T05:23:57;1.63;;;0.90;;
16113;SDS011;8161;-33.910;151.156;2022-11-24T05:26:25;3.70;;;0.80;;
16113;SDS011;8161;-33.910;151.156;2022-11-24T05:28:52;2.55;;;0.70;;
16113;SDS011;8161;-33.910;151.156;2022-11-24T05:31:19;3.03;;;0.82;;
16113;SDS011;8161;-33.910;151.156;2022-11-24T05:33:47;3.60;;;0.98;;
16113;SDS011;8161;-33.910;151.156;2022-11-24T05:36:14;6.25;;;1.48;;
16113;SDS011;8161;-33.910;151.156;2022-11-24T05:38:54;9.60;;;1.23;;
16113;SDS011;8161;-33.910;151.156;2022-11-24T05:41:21;5.40;;;1.17;;
16113;SDS011;8161;-33.910;151.156;2022-11-24T05:43:48;3.63;;;1.10;;
16113;SDS011;8161;-33.910;151.156;2022-11-24T05:46:16;3.28;;;1.15;;
16113;SDS011;8161;-33.910;151.156;2022-11-24T05:48:43;4.15;;;0.80;;
16113;SDS011;8161;-33.910;151.156;2022-11-24T05:51:10;2.92;;;0.80;;
16113;SDS011;8161;-33.910;151.156;2022-11-24T05:53:38;6.63;;;1.10;;
16113;SDS011;8161;-33.910;151.156;2022-11-24T05:56:05;3.15;;;0.70;;
16113;SDS011;8161;-33.910;151.156;2022-11-24T05:58:32;4.28;;;1.00;;
16113;SDS011;8161;-33.910;151.156;2022-11-24T06:01:03;5.28;;;1.08;;
16113;SDS011;8161;-33.910;151.156;2022-11-24T06:03:32;3.58;;;1.02;;
16113;SDS011;8161;-33.910;151.156;2022-11-24T06:05:59;2.65;;;0.80;;
16113;SDS011;8161;-33.910;151.156;2022-11-24T06:08:26;3.97;;;0.98;;
16113;SDS011;8161;-33.910;151.156;2022-11-24T06:10:53;3.60;;;0.82;;
16113;SDS011;8161;-33.910;151.156;2022-11-24T06:13:45;5.15;;;1.02;;
16113;SDS011;8161;-33.910;151.156;2022-11-24T06:16:13;7.10;;;0.90;;
16113;SDS011;8161;-33.910;151.156;2022-11-24T06:18:40;7.63;;;1.20;;
16113;SDS011;8161;-33.910;151.156;2022-11-24T06:21:08;4.47;;;1.10;;
16113;SDS011;8161;-33.910;151.156;2022-11-24T06:23:35;5.97;;;1.20;;
16113;SDS011;8161;-33.910;151.156;2022-11-24T06:26:03;4.38;;;1.02;;
16113;SDS011;8161;-33.910;151.156;2022-11-24T06:28:30;5.88;;;1.30;;
16113;SDS011;8161;-33.910;151.156;2022-11-24T06:31:01;4.15;;;1.40;;
16113;SDS011;8161;-33.910;151.156;2022-11-24T06:33:30;5.88;;;1.08;;
16113;SDS011;8161;-33.910;151.156;2022-11-24T06:36:02;4.10;;;1.30;;
16113;SDS011;8161;-33.910;151.156;2022-11-24T06:38:33;4.97;;;1.23;;
16113;SDS011;8161;-33.910;151.156;2022-11-24T06:41:02;7.88;;;1.27;;
16113;SDS011;8161;-33.910;151.156;2022-11-24T06:43:35;6.30;;;1.08;;
16113;SDS011;8161;-33.910;151.156;2022-11-24T06:46:02;9.43;;;1.70;;
16113;SDS011;8161;-33.910;151.156;2022-11-24T06:48:30;6.20;;;1.23;;
16113;SDS011;8161;-33.910;151.156;2022-11-24T06:51:01;5.05;;;1.23;;
16113;SDS011;8161;-33.910;151.156;2022-11-24T06:53:34;4.25;;;1.33;;
16113;SDS011;8161;-33.910;151.156;2022-11-24T06:56:03;6.40;;;1.58;;
16113;SDS011;8161;-33.910;151.156;2022-11-24T06:58:32;6.40;;;1.30;;
16113;SDS011;8161;-33.910;151.156;2022-11-24T07:00:59;8.45;;;1.70;;
16113;SDS011;8161;-33.910;151.156;2022-11-24T07:03:26;8.45;;;2.17;;
16113;SDS011;8161;-33.910;151.156;2022-11-24T07:05:57;6.65;;;1.67;;
16113;SDS011;8161;-33.910;151.156;2022-11-24T07:08:24;6.05;;;1.58;;
16113;SDS011;8161;-33.910;151.156;2022-11-24T07:10:53;6.90;;;1.25;;
16113;SDS011;8161;-33.910;151.156;2022-11-24T07:13:20;9.75;;;1.17;;
16113;SDS011;8161;-33.910;151.156;2022-11-24T07:15:48;5.60;;;1.08;;
16113;SDS011;8161;-33.910;151.156;2022-11-24T07:18:15;6.68;;;1.10;;
16113;SDS011;8161;-33.910;151.156;2022-11-24T07:20:43;6.20;;;1.33;;
16113;SDS011;8161;-33.910;151.156;2022-11-24T07:23:11;8.48;;;2.05;;
16113;SDS011;8161;-33.910;151.156;2022-11-24T07:25:38;5.85;;;1.42;;
16113;SDS011;8161;-33.910;151.156;2022-11-24T07:28:05;3.78;;;1.00;;
16113;SDS011;8161;-33.910;151.156;2022-11-24T07:30:32;7.88;;;1.70;;
16113;SDS011;8161;-33.910;151.156;2022-11-24T07:33:00;15.07;;;3.22;;
16113;SDS011;8161;-33.910;151.156;2022-11-24T07:35:28;8.38;;;1.52;;
16113;SDS011;8161;-33.910;151.156;2022-11-24T07:37:56;4.95;;;1.30;;
16113;SDS011;8161;-33.910;151.156;2022-11-24T07:40:24;5.40;;;1.33;;
16113;SDS011;8161;-33.910;151.156;2022-11-24T07:42:52;5.63;;;1.30;;
16113;SDS011;8161;-33.910;151.156;2022-11-24T07:45:19;10.85;;;1.63;;
16113;SDS011;8161;-33.910;151.156;2022-11-24T07:47:47;5.25;;;1.35;;
16113;SDS011;8161;-33.910;151.156;2022-11-24T07:50:15;9.82;;;1.42;;
16113;SDS011;8161;-33.910;151.156;2022-11-24T07:52:42;9.65;;;1.40;;
16113;SDS011;8161;-33.910;151.156;2022-11-24T07:55:09;9.35;;;1.27;;
16113;SDS011;8161;-33.910;151.156;2022-11-24T07:57:37;7.25;;;1.83;;
16113;SDS011;8161;-33.910;151.156;2022-11-24T08:00:05;9.82;;;1.98;;
16113;SDS011;8161;-33.910;151.156;2022-11-24T08:02:33;12.85;;;1.67;;
16113;SDS011;8161;-33.910;151.156;2022-11-24T08:05:00;7.88;;;1.33;;
16113;SDS011;8161;-33.910;151.156;2022-11-24T08:07:28;9.35;;;1.52;;
16113;SDS011;8161;-33.910;151.156;2022-11-24T08:09:55;8.07;;;1.73;;
16113;SDS011;8161;-33.910;151.156;2022-11-24T08:12:22;9.00;;;1.48;;
16113;SDS011;8161;-33.910;151.156;2022-11-24T08:14:50;10.10;;;1.85;;
16113;SDS011;8161;-33.910;151.156;2022-11-24T08:17:17;8.25;;;1.85;;
16113;SDS011;8161;-33.910;151.156;2022-11-24T08:19:45;8.27;;;1.75;;
16113;SDS011;8161;-33.910;151.156;2022-11-24T08:22:12;6.93;;;1.73;;
16113;SDS011;8161;-33.910;151.156;2022-11-24T08:24:39;5.75;;;1.63;;
16113;SDS011;8161;-33.910;151.156;2022-11-24T08:27:12;8.15;;;1.42;;
16113;SDS011;8161;-33.910;151.156;2022-11-24T08:29:40;8.20;;;1.70;;
16113;SDS011;8161;-33.910;151.156;2022-11-24T08:32:08;9.32;;;1.50;;
16113;SDS011;8161;-33.910;151.156;2022-11-24T08:34:36;7.82;;;1.45;;
16113;SDS011;8161;-33.910;151.156;2022-11-24T08:37:04;7.90;;;1.55;;
16113;SDS011;8161;-33.910;151.156;2022-11-24T08:39:32;6.15;;;1.40;;
16113;SDS011;8161;-33.910;151.156;2022-11-24T08:41:59;8.63;;;1.55;;
16113;SDS011;8161;-33.910;151.156;2022-11-24T08:44:27;6.75;;;1.92;;
16113;SDS011;8161;-33.910;151.156;2022-11-24T08:46:54;15.68;;;2.33;;
16113;SDS011;8161;-33.910;151.156;2022-11-24T08:49:22;8.13;;;1.70;;
16113;SDS011;8161;-33.910;151.156;2022-11-24T08:51:49;6.15;;;1.90;;
16113;SDS011;8161;-33.910;151.156;2022-11-24T08:54:16;7.93;;;2.13;;
16113;SDS011;8161;-33.910;151.156;2022-11-24T08:56:44;10.10;;;2.10;;
16113;SDS011;8161;-33.910;151.156;2022-11-24T08:59:13;9.70;;;1.95;;
16113;SDS011;8161;-33.910;151.156;2022-11-24T09:01:41;11.48;;;2.20;;
16113;SDS011;8161;-33.910;151.156;2022-11-24T09:04:09;11.73;;;2.40;;
16113;SDS011;8161;-33.910;151.156;2022-11-24T09:06:36;8.05;;;1.67;;
16113;SDS011;8161;-33.910;151.156;2022-11-24T09:09:03;11.82;;;2.40;;
16113;SDS011;8161;-33.910;151.156;2022-11-24T09:11:32;7.45;;;1.80;;
16113;SDS011;8161;-33.910;151.156;2022-11-24T09:13:59;9.88;;;1.95;;
16113;SDS011;8161;-33.910;151.156;2022-11-24T09:16:27;7.60;;;1.83;;
16113;SDS011;8161;-33.910;151.156;2022-11-24T09:19:04;9.40;;;1.95;;
16113;SDS011;8161;-33.910;151.156;2022-11-24T09:21:34;7.15;;;1.92;;
16113;SDS011;8161;-33.910;151.156;2022-11-24T09:24:05;10.30;;;2.60;;
16113;SDS011;8161;-33.910;151.156;2022-11-24T09:26:33;8.65;;;2.10;;
16113;SDS011;8161;-33.910;151.156;2022-11-24T09:29:02;16.02;;;2.60;;
16113;SDS011;8161;-33.910;151.156;2022-11-24T09:31:33;7.93;;;1.88;;
16113;SDS011;8161;-33.910;151.156;2022-11-24T09:34:02;9.65;;;2.28;;
16113;SDS011;8161;-33.910;151.156;2022-11-24T09:36:36;13.85;;;2.85;;
16113;SDS011;8161;-33.910;151.156;2022-11-24T09:39:03;7.53;;;1.88;;
16113;SDS011;8161;-33.910;151.156;2022-11-24T09:41:37;12.57;;;2.17;;
16113;SDS011;8161;-33.910;151.156;2022-11-24T09:49:34;10.52;;;1.88;;
16113;SDS011;8161;-33.910;151.156;2022-11-24T09:52:17;14.20;;;2.63;;
16113;SDS011;8161;-33.910;151.156;2022-11-24T09:55:18;11.57;;;2.25;;
16113;SDS011;8161;-33.910;151.156;2022-11-24T09:57:56;12.77;;;2.30;;
16113;SDS011;8161;-33.910;151.156;2022-11-24T10:00:34;13.15;;;2.53;;
16113;SDS011;8161;-33.910;151.156;2022-11-24T10:03:03;11.80;;;1.90;;
16113;SDS011;8161;-33.910;151.156;2022-11-24T10:05:32;13.02;;;2.03;;
16113;SDS011;8161;-33.910;151.156;2022-11-24T10:08:06;9.00;;;1.70;;
16113;SDS011;8161;-33.910;151.156;2022-11-24T10:10:59;10.10;;;2.35;;
16113;SDS011;8161;-33.910;151.156;2022-11-24T10:13:39;8.90;;;1.73;;
16113;SDS011;8161;-33.910;151.156;2022-11-24T10:19:26;9.50;;;2.03;;
16113;SDS011;8161;-33.910;151.156;2022-11-24T10:27:29;8.88;;;1.85;;
16113;SDS011;8161;-33.910;151.156;2022-11-24T10:30:15;11.18;;;1.95;;
16113;SDS011;8161;-33.910;151.156;2022-11-24T10:32:46;10.75;;;1.92;;
16113;SDS011;8161;-33.910;151.156;2022-11-24T10:35:22;11.57;;;2.03;;
16113;SDS011;8161;-33.910;151.156;2022-11-24T10:41:23;8.65;;;2.38;;
16113;SDS011;8161;-33.910;151.156;2022-11-24T10:44:01;13.07;;;2.58;;
16113;SDS011;8161;-33.910;151.156;2022-11-24T10:46:28;10.65;;;1.90;;
16113;SDS011;8161;-33.910;151.156;2022-11-24T10:48:57;10.18;;;1.90;;
16113;SDS011;8161;-33.910;151.156;2022-11-24T10:51:32;6.72;;;1.70;;
16113;SDS011;8161;-33.910;151.156;2022-11-24T10:56:49;7.38;;;1.40;;
16113;SDS011;8161;-33.910;151.156;2022-11-24T11:01:51;7.30;;;1.92;;
16113;SDS011;8161;-33.910;151.156;2022-11-24T11:04:22;11.40;;;2.08;;
16113;SDS011;8161;-33.910;151.156;2022-11-24T11:07:05;10.63;;;1.90;;
16113;SDS011;8161;-33.910;151.156;2022-11-24T11:09:44;12.52;;;2.15;;
16113;SDS011;8161;-33.910;151.156;2022-11-24T11:12:19;8.57;;;1.92;;
16113;SDS011;8161;-33.910;151.156;2022-11-24T11:14:48;7.95;;;1.70;;
16113;SDS011;8161;-33.910;151.156;2022-11-24T11:20:04;7.55;;;1.45;;
16113;SDS011;8161;-33.910;151.156;2022-11-24T11:22:51;13.77;;;2.22;;
16113;SDS011;8161;-33.910;151.156;2022-11-24T11:25:28;10.77;;;1.88;;
16113;SDS011;8161;-33.910;151.156;2022-11-24T11:36:45;4.85;;;1.25;;
16113;SDS011;8161;-33.910;151.156;2022-11-24T11:39:21;9.95;;;2.05;;
16113;SDS011;8161;-33.910;151.156;2022-11-24T11:41:59;8.38;;;1.90;;
16113;SDS011;8161;-33.910;151.156;2022-11-24T11:44:45;9.68;;;2.35;;
16113;SDS011;8161;-33.910;151.156;2022-11-24T11:47:16;9.10;;;2.05;;
16113;SDS011;8161;-33.910;151.156;2022-11-24T11:50:11;7.95;;;1.55;;
16113;SDS011;8161;-33.910;151.156;2022-11-24T12:00:56;10.07;;;1.85;;
16113;SDS011;8161;-33.910;151.156;2022-11-24T12:03:32;12.18;;;1.50;;
16113;SDS011;8161;-33.910;151.156;2022-11-24T12:17:11;12.73;;;2.60;;
16113;SDS011;8161;-33.910;151.156;2022-11-24T12:22:45;6.72;;;1.55;;
16113;SDS011;8161;-33.910;151.156;2022-11-24T12:25:40;14.50;;;3.03;;
16113;SDS011;8161;-33.910;151.156;2022-11-24T12:28:17;15.63;;;1.42;;
16113;SDS011;8161;-33.910;151.156;2022-11-24T12:31:05;5.88;;;1.50;;
16113;SDS011;8161;-33.910;151.156;2022-11-24T12:39:06;4.40;;;2.00;;
16113;SDS011;8161;-33.910;151.156;2022-11-24T12:44:45;7.55;;;1.50;;
16113;SDS011;8161;-33.910;151.156;2022-11-24T12:50:19;8.32;;;1.88;;
16113;SDS011;8161;-33.910;151.156;2022-11-24T12:55:38;6.45;;;1.63;;
16113;SDS011;8161;-33.910;151.156;2022-11-24T12:58:13;8.60;;;1.85;;
16113;SDS011;8161;-33.910;151.156;2022-11-24T13:09:16;5.40;;;1.45;;
16113;SDS011;8161;-33.910;151.156;2022-11-24T13:12:26;8.57;;;1.48;;
16113;SDS011;8161;-33.910;151.156;2022-11-24T13:14:42;8.00;;;1.73;;
16113;SDS011;8161;-33.910;151.156;2022-11-24T13:22:54;8.35;;;1.52;;
16113;SDS011;8161;-33.910;151.156;2022-11-24T13:25:25;8.68;;;1.40;;
16113;SDS011;8161;-33.910;151.156;2022-11-24T13:27:55;6.78;;;1.58;;
16113;SDS011;8161;-33.910;151.156;2022-11-24T13:31:19;9.85;;;1.95;;
16113;SDS011;8161;-33.910;151.156;2022-11-24T13:33:34;13.02;;;2.05;;
16113;SDS011;8161;-33.910;151.156;2022-11-24T13:38:53;9.13;;;1.75;;
16113;SDS011;8161;-33.910;151.156;2022-11-24T13:49:21;7.07;;;1.40;;
16113;SDS011;8161;-33.910;151.156;2022-11-24T13:51:58;11.20;;;1.60;;
16113;SDS011;8161;-33.910;151.156;2022-11-24T13:54:49;9.05;;;1.70;;
16113;SDS011;8161;-33.910;151.156;2022-11-24T13:59:59;7.72;;;1.40;;
16113;SDS011;8161;-33.910;151.156;2022-11-24T14:02:27;8.98;;;1.73;;
16113;SDS011;8161;-33.910;151.156;2022-11-24T14:04:55;10.63;;;1.85;;
16113;SDS011;8161;-33.910;151.156;2022-11-24T14:07:24;4.60;;;1.50;;
16113;SDS011;8161;-33.910;151.156;2022-11-24T14:09:51;11.60;;;1.55;;
16113;SDS011;8161;-33.910;151.156;2022-11-24T14:12:22;9.63;;;1.40;;
16113;SDS011;8161;-33.910;151.156;2022-11-24T14:14:51;6.32;;;1.58;;
16113;SDS011;8161;-33.910;151.156;2022-11-24T14:17:37;9.75;;;1.65;;
16113;SDS011;8161;-33.910;151.156;2022-11-24T14:20:08;6.05;;;1.33;;
16113;SDS011;8161;-33.910;151.156;2022-11-24T14:22:52;7.90;;;1.30;;
16113;SDS011;8161;-33.910;151.156;2022-11-24T14:25:29;5.93;;;1.40;;
16113;SDS011;8161;-33.910;151.156;2022-11-24T14:28:00;6.80;;;1.35;;
16113;SDS011;8161;-33.910;151.156;2022-11-24T14:30:29;7.63;;;1.63;;
16113;SDS011;8161;-33.910;151.156;2022-11-24T14:33:00;6.70;;;1.10;;
16113;SDS011;8161;-33.910;151.156;2022-11-24T14:35:30;5.18;;;1.10;;
16113;SDS011;8161;-33.910;151.156;2022-11-24T14:38:02;6.68;;;1.27;;
16113;SDS011;8161;-33.910;151.156;2022-11-24T14:41:12;6.13;;;1.48;;
16113;SDS011;8161;-33.910;151.156;2022-11-24T14:45:59;10.25;;;1.38;;
16113;SDS011;8161;-33.910;151.156;2022-11-24T14:48:36;5.43;;;1.40;;
16113;SDS011;8161;-33.910;151.156;2022-11-24T14:51:11;8.10;;;2.53;;
16113;SDS011;8161;-33.910;151.156;2022-11-24T14:53:40;5.85;;;1.30;;
16113;SDS011;8161;-33.910;151.156;2022-11-24T14:58:59;7.25;;;1.60;;
16113;SDS011;8161;-33.910;151.156;2022-11-24T15:06:44;14.00;;;1.77;;
16113;SDS011;8161;-33.910;151.156;2022-11-24T15:12:27;7.63;;;1.17;;
16113;SDS011;8161;-33.910;151.156;2022-11-24T15:15:00;4.63;;;1.23;;
16113;SDS011;8161;-33.910;151.156;2022-11-24T15:17:45;5.15;;;1.50;;
16113;SDS011;8161;-33.910;151.156;2022-11-24T15:23:10;7.80;;;1.65;;
16113;SDS011;8161;-33.910;151.156;2022-11-24T15:25:41;4.55;;;1.27;;
16113;SDS011;8161;-33.910;151.156;2022-11-24T15:28:08;11.38;;;2.13;;
16113;SDS011;8161;-33.910;151.156;2022-11-24T15:30:36;10.57;;;1.50;;
16113;SDS011;8161;-33.910;151.156;2022-11-24T15:33:13;7.95;;;1.60;;
16113;SDS011;8161;-33.910;151.156;2022-11-24T15:35:42;7.65;;;1.40;;
16113;SDS011;8161;-33.910;151.156;2022-11-24T15:38:10;7.45;;;1.50;;
16113;SDS011;8161;-33.910;151.156;2022-11-24T15:40:38;10.43;;;2.30;;
16113;SDS011;8161;-33.910;151.156;2022-11-24T15:43:29;5.57;;;1.50;;
16113;SDS011;8161;-33.910;151.156;2022-11-24T15:46:03;5.95;;;1.80;;
16113;SDS011;8161;-33.910;151.156;2022-11-24T15:48:32;7.45;;;1.67;;
16113;SDS011;8161;-33.910;151.156;2022-11-24T15:51:03;7.13;;;1.92;;
16113;SDS011;8161;-33.910;151.156;2022-11-24T15:53:33;7.82;;;1.77;;
16113;SDS011;8161;-33.910;151.156;2022-11-24T15:56:05;10.43;;;1.35;;
16113;SDS011;8161;-33.910;151.156;2022-11-24T15:58:36;7.63;;;2.00;;
16113;SDS011;8161;-33.910;151.156;2022-11-24T16:01:04;4.57;;;1.30;;
16113;SDS011;8161;-33.910;151.156;2022-11-24T16:03:31;12.75;;;1.73;;
16113;SDS011;8161;-33.910;151.156;2022-11-24T16:05:58;8.43;;;1.65;;
16113;SDS011;8161;-33.910;151.156;2022-11-24T16:08:26;8.63;;;1.52;;
16113;SDS011;8161;-33.910;151.156;2022-11-24T16:10:53;11.85;;;2.15;;
16113;SDS011;8161;-33.910;151.156;2022-11-24T16:13:21;10.30;;;1.40;;
16113;SDS011;8161;-33.910;151.156;2022-11-24T16:15:48;10.32;;;1.48;;
16113;SDS011;8161;-33.910;151.156;2022-11-24T16:18:15;9.48;;;1.77;;
16113;SDS011;8161;-33.910;151.156;2022-11-24T16:20:42;8.45;;;1.73;;
16113;SDS011;8161;-33.910;151.156;2022-11-24T16:23:10;14.23;;;1.75;;
16113;SDS011;8161;-33.910;151.156;2022-11-24T16:25:37;7.35;;;1.48;;
16113;SDS011;8161;-33.910;151.156;2022-11-24T16:28:04;7.78;;;1.73;;
16113;SDS011;8161;-33.910;151.156;2022-11-24T16:30:32;16.15;;;2.42;;
16113;SDS011;8161;-33.910;151.156;2022-11-24T16:33:03;9.15;;;2.40;;
16113;SDS011;8161;-33.910;151.156;2022-11-24T16:35:31;7.68;;;1.60;;
16113;SDS011;8161;-33.910;151.156;2022-11-24T16:37:59;4.25;;;0.90;;
16113;SDS011;8161;-33.910;151.156;2022-11-24T16:40:26;7.65;;;1.67;;
16113;SDS011;8161;-33.910;151.156;2022-11-24T16:42:53;9.75;;;1.60;;
16113;SDS011;8161;-33.910;151.156;2022-11-24T16:45:22;6.00;;;1.60;;
16113;SDS011;8161;-33.910;151.156;2022-11-24T16:47:50;13.25;;;2.05;;